Monday, December 5, 2016, 11:36 AM EST

KOFP, Hanover County Municipal

Location: Ashland, VA, United States Lat: 37.7
Local Time: 11:36 AM EST (16:36 GMT) Lon: -77.433
Time Zone: US/Eastern Elev: 203 ft

Show me the last for .
Show Decoded

2016-12-05 10:54 METAR KOFP 051554Z AUTO 30004KT 10SM OVC005 06/04 A3005 RMK AO2 SLP177 T00610044
                 =
2016-12-05 10:09 METAR KOFP 051509Z AUTO 29006KT 10SM OVC005 06/04 A3005 RMK AO2 T00560039 =
2016-12-05 09:54 METAR KOFP 051454Z AUTO 33005KT 10SM OVC004 06/03 A3004 RMK AO2 SLP172 T00560033
                 53010 =
2016-12-05 08:54 METAR KOFP 051354Z AUTO 26004KT 7SM OVC004 06/04 A3003 RMK AO2 SLP169 T00560039
                 =
2016-12-05 07:54 METAR KOFP 051254Z AUTO 00000KT 7SM OVC004 05/03 A3001 RMK AO2 SLP163 T00500033
                 =
2016-12-05 06:54 METAR KOFP 051154Z AUTO 17004KT 7SM OVC004 05/04 A3001 RMK AO2 SLP162 60022
                 70032 T00500039 10050 20039 56014 =
2016-12-05 05:54 METAR KOFP 051054Z AUTO 14003KT 9SM BKN004 OVC055 05/04 A3001 RMK AO2 SLP162
                 T00500039 TSNO =
2016-12-05 05:20 METAR KOFP 051020Z AUTO 17004KT 10SM SCT004 OVC036 05/04 A3003 RMK AO2 T00500039
                 =
2016-12-05 05:13 METAR KOFP 051013Z AUTO 00000KT 10SM BKN004 OVC037 05/04 A3004 RMK AO2 CIG
                 003V007 T00500039 =
2016-12-05 04:54 METAR KOFP 050954Z AUTO 00000KT 9SM OVC005 05/04 A3003 RMK AO2 CIG 003V008
                 SLP169 T00500039 =
2016-12-05 03:54 METAR KOFP 050854Z AUTO 18006KT 6SM BR BKN005 OVC023 04/03 A3005 RMK AO2 RAE51
                 SLP176 P0004 60022 T00440033 58010 =
2016-12-05 02:54 METAR KOFP 050754Z AUTO 20004KT 3SM -RA BR OVC005 04/03 A3008 RMK AO2 SLP186
                 P0011 T00440033 =
2016-12-05 02:13 METAR KOFP 050713Z AUTO 18005KT 3SM RA BR BKN004 OVC009 04/03 A3008 RMK AO2
                 P0004 T00440033 =
2016-12-05 01:54 METAR KOFP 050654Z AUTO 18005KT 2 1/2SM RA BR BKN004 OVC010 04/03 A3008 RMK AO2
                 SLP186 P0007 T00440033 =
2016-12-05 01:50 METAR KOFP 050650Z AUTO 18005KT 2 1/2SM RA BR BKN004 OVC010 04/03 A3008 RMK AO2
                 P0007 =
2016-12-05 01:26 METAR KOFP 050626Z AUTO 18005KT 3SM RA BR OVC004 04/03 A3008 RMK AO2 P0003
                 T00440033 =
2016-12-05 01:01 METAR KOFP 050601Z AUTO 17006KT 2 1/2SM -RA BR OVC005 04/03 A3007 RMK AO2 P0001
                 T00440028 =
2016-12-05 00:54 METAR KOFP 050554Z AUTO 17005KT 3SM -RA BR OVC004 04/03 A3008 RMK AO2 SLP185
                 P0005 60010 T00390028 10056 20039 56021 =
2016-12-05 00:51 METAR KOFP 050551Z AUTO 17005KT 3SM -RA BR OVC004 04/03 A3008 RMK AO2 P0005 =
2016-12-05 00:23 METAR KOFP 050523Z AUTO 00000KT 2 1/2SM -RA BR BKN004 OVC010 04/03 A3008 RMK AO2
                 P0003 T00390028 =
2016-12-04 23:54 METAR KOFP 050454Z AUTO VRB03KT 2SM RA BR BKN005 BKN012 OVC020 04/03 A3011 RMK
                 AO2 RAB06 SLP197 P0003 T00390028 400671011 =
2016-12-04 23:41 METAR KOFP 050441Z AUTO 13003KT 2SM -RA BR BKN005 OVC030 04/03 A3012 RMK AO2
                 RAB06 P0002 T00390028 =
2016-12-04 23:08 METAR KOFP 050408Z AUTO VRB03KT 2 1/2SM -RA BR FEW005 OVC031 04/03 A3013 RMK AO2
                 RAB06 P0000 T00390028 =
2016-12-04 22:54 METAR KOFP 050354Z AUTO 00000KT 4SM BR BKN033 OVC040 04/03 A3014 RMK AO2
                 RAB0256E51 SLP207 P0001 T00390028 =
2016-12-04 21:54 METAR KOFP 050254Z AUTO 00000KT 6SM BR OVC036 04/02 A3016 RMK AO2 RAE54 SLP213
                 P0001 60001 T00440022 56018 =
2016-12-04 20:54 METAR KOFP 050154Z AUTO 00000KT 8SM -RA OVC040 05/02 A3018 RMK AO2 RAE0058B38
                 SLP219 P0000 T00500017 =
2016-12-04 19:54 METAR KOFP 050054Z AUTO 00000KT 10SM -RA OVC044 05/00 A3019 RMK AO2 RAB46 SLP225
                 P0000 T00500000 =
2016-12-04 18:54 METAR KOFP 042354Z AUTO 17003KT 10SM OVC048 05/01 A3021 RMK AO2 SLP231 T00500006
                 10067 20050 58001 =
2016-12-04 17:54 METAR KOFP 042254Z AUTO 00000KT 10SM BKN090 OVC110 05/01 A3022 RMK AO2 SLP234
                 T00500006 =
2016-12-04 16:54 METAR KOFP 042154Z AUTO 00000KT 10SM FEW070 OVC110 06/M01 A3022 RMK AO2 SLP234
                 T00561006 =
2016-12-04 15:54 METAR KOFP 042054Z AUTO VRB03KT 10SM BKN080 OVC100 06/M02 A3021 RMK AO2 SLP232
                 T00611017 58019 =
2016-12-04 14:54 METAR KOFP 041954Z AUTO 00000KT 10SM CLR 07/M02 A3024 RMK AO2 SLP243 T00671017 =
2016-12-04 13:54 METAR KOFP 041854Z AUTO 00000KT 10SM CLR 06/M02 A3025 RMK AO2 SLP245 T00611017 =
2016-12-04 12:54 METAR KOFP 041754Z AUTO 00000KT 10SM CLR 06/M02 A3027 RMK AO2 SLP252 T00611022
                 10061 20000 58018 =
2016-12-04 11:54 METAR KOFP 041654Z AUTO 00000KT 10SM CLR 06/M03 A3029 RMK AO2 SLP259 T00561028
                 TSNO =

Support USWX by starting your Amazon purchase here.